sensor_id;sensor_type;location;lat;lon;timestamp;P1;durP1;ratioP1;P2;durP2;ratioP2
52126;SDS011;38120;53.176;6.614;2023-06-01T00:00:33;11.33;;;5.03;;
52126;SDS011;38120;53.176;6.614;2023-06-01T00:02:58;9.20;;;4.67;;
52126;SDS011;38120;53.176;6.614;2023-06-01T00:05:24;7.22;;;3.92;;
52126;SDS011;38120;53.176;6.614;2023-06-01T00:07:50;13.47;;;4.93;;
52126;SDS011;38120;53.176;6.614;2023-06-01T00:10:16;10.73;;;4.75;;
52126;SDS011;38120;53.176;6.614;2023-06-01T00:12:41;13.00;;;5.53;;
52126;SDS011;38120;53.176;6.614;2023-06-01T00:15:08;13.23;;;5.97;;
52126;SDS011;38120;53.176;6.614;2023-06-01T00:17:34;9.82;;;4.60;;
52126;SDS011;38120;53.176;6.614;2023-06-01T00:20:00;9.80;;;4.63;;
52126;SDS011;38120;53.176;6.614;2023-06-01T00:22:27;7.63;;;4.20;;
52126;SDS011;38120;53.176;6.614;2023-06-01T00:24:54;10.73;;;5.22;;
52126;SDS011;38120;53.176;6.614;2023-06-01T00:27:20;13.40;;;4.90;;
52126;SDS011;38120;53.176;6.614;2023-06-01T00:29:46;10.75;;;5.15;;
52126;SDS011;38120;53.176;6.614;2023-06-01T00:32:12;11.32;;;4.88;;
52126;SDS011;38120;53.176;6.614;2023-06-01T00:34:37;13.57;;;5.53;;
52126;SDS011;38120;53.176;6.614;2023-06-01T00:37:03;13.17;;;5.80;;
52126;SDS011;38120;53.176;6.614;2023-06-01T00:39:29;11.80;;;5.32;;
52126;SDS011;38120;53.176;6.614;2023-06-01T00:41:54;12.33;;;4.43;;
52126;SDS011;38120;53.176;6.614;2023-06-01T00:44:20;15.77;;;5.53;;
52126;SDS011;38120;53.176;6.614;2023-06-01T00:46:46;13.53;;;5.17;;
52126;SDS011;38120;53.176;6.614;2023-06-01T00:49:11;9.55;;;4.60;;
52126;SDS011;38120;53.176;6.614;2023-06-01T00:51:37;12.07;;;4.22;;
52126;SDS011;38120;53.176;6.614;2023-06-01T00:54:03;11.05;;;4.90;;
52126;SDS011;38120;53.176;6.614;2023-06-01T00:56:29;11.30;;;5.40;;
52126;SDS011;38120;53.176;6.614;2023-06-01T00:58:56;11.85;;;4.32;;
52126;SDS011;38120;53.176;6.614;2023-06-01T01:01:22;11.55;;;4.72;;
52126;SDS011;38120;53.176;6.614;2023-06-01T01:11:47;14.05;;;5.85;;
52126;SDS011;38120;53.176;6.614;2023-06-01T01:14:23;13.40;;;4.70;;
52126;SDS011;38120;53.176;6.614;2023-06-01T01:17:07;12.70;;;4.70;;
52126;SDS011;38120;53.176;6.614;2023-06-01T01:19:43;9.57;;;4.60;;
52126;SDS011;38120;53.176;6.614;2023-06-01T01:25:18;11.95;;;4.15;;
52126;SDS011;38120;53.176;6.614;2023-06-01T01:30:31;14.05;;;4.93;;
52126;SDS011;38120;53.176;6.614;2023-06-01T01:32:59;9.45;;;4.32;;
52126;SDS011;38120;53.176;6.614;2023-06-01T01:35:26;10.27;;;5.55;;
52126;SDS011;38120;53.176;6.614;2023-06-01T01:37:54;14.50;;;5.63;;
52126;SDS011;38120;53.176;6.614;2023-06-01T01:40:20;18.58;;;5.75;;
52126;SDS011;38120;53.176;6.614;2023-06-01T01:42:46;10.70;;;5.40;;
52126;SDS011;38120;53.176;6.614;2023-06-01T01:45:13;15.32;;;6.03;;
52126;SDS011;38120;53.176;6.614;2023-06-01T01:47:44;13.63;;;6.03;;
52126;SDS011;38120;53.176;6.614;2023-06-01T01:50:40;11.48;;;5.38;;
52126;SDS011;38120;53.176;6.614;2023-06-01T01:53:12;16.52;;;4.85;;
52126;SDS011;38120;53.176;6.614;2023-06-01T01:55:38;9.93;;;5.20;;
52126;SDS011;38120;53.176;6.614;2023-06-01T01:58:05;7.70;;;4.50;;
52126;SDS011;38120;53.176;6.614;2023-06-01T02:00:31;18.08;;;5.28;;
52126;SDS011;38120;53.176;6.614;2023-06-01T02:02:58;10.65;;;3.97;;
52126;SDS011;38120;53.176;6.614;2023-06-01T02:05:25;8.25;;;4.75;;
52126;SDS011;38120;53.176;6.614;2023-06-01T02:07:51;12.48;;;4.35;;
52126;SDS011;38120;53.176;6.614;2023-06-01T02:10:16;12.48;;;4.65;;
52126;SDS011;38120;53.176;6.614;2023-06-01T02:12:42;10.77;;;4.28;;
52126;SDS011;38120;53.176;6.614;2023-06-01T02:15:08;11.05;;;5.40;;
52126;SDS011;38120;53.176;6.614;2023-06-01T02:17:34;13.95;;;4.20;;
52126;SDS011;38120;53.176;6.614;2023-06-01T02:20:02;10.40;;;4.50;;
52126;SDS011;38120;53.176;6.614;2023-06-01T02:22:28;8.68;;;3.80;;
52126;SDS011;38120;53.176;6.614;2023-06-01T02:24:54;8.45;;;4.28;;
52126;SDS011;38120;53.176;6.614;2023-06-01T02:27:20;10.45;;;3.88;;
52126;SDS011;38120;53.176;6.614;2023-06-01T02:29:45;10.00;;;3.67;;
52126;SDS011;38120;53.176;6.614;2023-06-01T02:32:11;8.00;;;3.30;;
52126;SDS011;38120;53.176;6.614;2023-06-01T02:34:37;6.43;;;3.50;;
52126;SDS011;38120;53.176;6.614;2023-06-01T02:37:03;11.25;;;4.05;;
52126;SDS011;38120;53.176;6.614;2023-06-01T02:39:29;15.45;;;4.10;;
52126;SDS011;38120;53.176;6.614;2023-06-01T02:41:55;8.15;;;3.47;;
52126;SDS011;38120;53.176;6.614;2023-06-01T02:44:21;9.40;;;3.70;;
52126;SDS011;38120;53.176;6.614;2023-06-01T02:46:46;14.07;;;3.63;;
52126;SDS011;38120;53.176;6.614;2023-06-01T02:49:12;8.73;;;4.00;;
52126;SDS011;38120;53.176;6.614;2023-06-01T02:51:38;13.27;;;3.90;;
52126;SDS011;38120;53.176;6.614;2023-06-01T02:54:03;9.87;;;3.97;;
52126;SDS011;38120;53.176;6.614;2023-06-01T02:56:29;8.90;;;3.67;;
52126;SDS011;38120;53.176;6.614;2023-06-01T02:58:55;7.95;;;3.70;;
52126;SDS011;38120;53.176;6.614;2023-06-01T03:01:21;8.00;;;3.00;;
52126;SDS011;38120;53.176;6.614;2023-06-01T03:03:47;8.38;;;3.60;;
52126;SDS011;38120;53.176;6.614;2023-06-01T03:06:13;8.80;;;3.05;;
52126;SDS011;38120;53.176;6.614;2023-06-01T03:08:39;7.97;;;2.92;;
52126;SDS011;38120;53.176;6.614;2023-06-01T03:11:05;7.63;;;3.30;;
52126;SDS011;38120;53.176;6.614;2023-06-01T03:13:30;8.02;;;3.90;;
52126;SDS011;38120;53.176;6.614;2023-06-01T03:15:56;15.07;;;3.85;;
52126;SDS011;38120;53.176;6.614;2023-06-01T03:18:22;8.00;;;3.63;;
52126;SDS011;38120;53.176;6.614;2023-06-01T03:20:47;10.53;;;4.53;;
52126;SDS011;38120;53.176;6.614;2023-06-01T03:23:14;10.63;;;3.40;;
52126;SDS011;38120;53.176;6.614;2023-06-01T03:25:40;7.43;;;4.22;;
52126;SDS011;38120;53.176;6.614;2023-06-01T03:28:06;7.43;;;3.83;;
52126;SDS011;38120;53.176;6.614;2023-06-01T03:30:32;9.27;;;4.60;;
52126;SDS011;38120;53.176;6.614;2023-06-01T03:32:58;11.93;;;4.23;;
52126;SDS011;38120;53.176;6.614;2023-06-01T03:35:23;11.00;;;5.30;;
52126;SDS011;38120;53.176;6.614;2023-06-01T03:37:49;10.40;;;4.60;;
52126;SDS011;38120;53.176;6.614;2023-06-01T03:40:15;11.03;;;3.77;;
52126;SDS011;38120;53.176;6.614;2023-06-01T03:42:41;9.03;;;4.07;;
52126;SDS011;38120;53.176;6.614;2023-06-01T03:45:09;11.05;;;3.92;;
52126;SDS011;38120;53.176;6.614;2023-06-01T03:47:36;11.00;;;4.75;;
52126;SDS011;38120;53.176;6.614;2023-06-01T03:50:03;9.35;;;4.57;;
52126;SDS011;38120;53.176;6.614;2023-06-01T03:52:33;11.15;;;4.57;;
52126;SDS011;38120;53.176;6.614;2023-06-01T03:55:00;8.43;;;4.20;;
52126;SDS011;38120;53.176;6.614;2023-06-01T03:57:29;12.15;;;4.20;;
52126;SDS011;38120;53.176;6.614;2023-06-01T03:59:55;8.45;;;4.43;;
52126;SDS011;38120;53.176;6.614;2023-06-01T04:02:21;13.35;;;5.03;;
52126;SDS011;38120;53.176;6.614;2023-06-01T04:07:13;13.45;;;4.18;;
52126;SDS011;38120;53.176;6.614;2023-06-01T04:09:43;14.38;;;4.22;;
52126;SDS011;38120;53.176;6.614;2023-06-01T04:12:09;10.57;;;4.45;;
52126;SDS011;38120;53.176;6.614;2023-06-01T04:14:38;14.20;;;5.10;;
52126;SDS011;38120;53.176;6.614;2023-06-01T04:17:04;12.38;;;5.05;;
52126;SDS011;38120;53.176;6.614;2023-06-01T04:19:31;11.13;;;3.92;;
52126;SDS011;38120;53.176;6.614;2023-06-01T04:24:23;11.02;;;4.93;;
52126;SDS011;38120;53.176;6.614;2023-06-01T04:26:49;8.57;;;4.27;;
52126;SDS011;38120;53.176;6.614;2023-06-01T04:31:41;8.27;;;3.88;;
52126;SDS011;38120;53.176;6.614;2023-06-01T04:34:07;10.52;;;4.25;;
52126;SDS011;38120;53.176;6.614;2023-06-01T04:36:33;10.13;;;4.23;;
52126;SDS011;38120;53.176;6.614;2023-06-01T04:39:02;9.93;;;4.18;;
52126;SDS011;38120;53.176;6.614;2023-06-01T04:41:28;13.23;;;4.07;;
52126;SDS011;38120;53.176;6.614;2023-06-01T04:43:56;10.38;;;3.83;;
52126;SDS011;38120;53.176;6.614;2023-06-01T04:46:23;11.70;;;3.53;;
52126;SDS011;38120;53.176;6.614;2023-06-01T04:48:50;12.35;;;4.13;;
52126;SDS011;38120;53.176;6.614;2023-06-01T04:53:48;15.35;;;3.67;;
52126;SDS011;38120;53.176;6.614;2023-06-01T04:56:20;9.02;;;3.53;;
52126;SDS011;38120;53.176;6.614;2023-06-01T04:58:52;6.88;;;3.97;;
52126;SDS011;38120;53.176;6.614;2023-06-01T05:03:44;7.38;;;3.28;;
52126;SDS011;38120;53.176;6.614;2023-06-01T05:08:40;9.88;;;3.63;;
52126;SDS011;38120;53.176;6.614;2023-06-01T05:11:06;8.80;;;3.40;;
52126;SDS011;38120;53.176;6.614;2023-06-01T05:13:37;9.57;;;3.08;;
52126;SDS011;38120;53.176;6.614;2023-06-01T05:16:04;9.18;;;3.67;;
52126;SDS011;38120;53.176;6.614;2023-06-01T05:18:31;12.73;;;3.63;;
52126;SDS011;38120;53.176;6.614;2023-06-01T05:23:23;12.43;;;3.35;;
52126;SDS011;38120;53.176;6.614;2023-06-01T05:25:50;8.05;;;3.60;;
52126;SDS011;38120;53.176;6.614;2023-06-01T05:28:16;7.47;;;3.65;;
52126;SDS011;38120;53.176;6.614;2023-06-01T05:30:42;10.40;;;3.80;;
52126;SDS011;38120;53.176;6.614;2023-06-01T05:33:08;14.45;;;3.67;;
52126;SDS011;38120;53.176;6.614;2023-06-01T05:35:34;12.68;;;4.25;;
52126;SDS011;38120;53.176;6.614;2023-06-01T05:38:01;7.68;;;3.63;;
52126;SDS011;38120;53.176;6.614;2023-06-01T05:40:26;10.20;;;3.90;;
52126;SDS011;38120;53.176;6.614;2023-06-01T05:42:52;9.30;;;3.90;;
52126;SDS011;38120;53.176;6.614;2023-06-01T05:45:18;13.82;;;4.45;;
52126;SDS011;38120;53.176;6.614;2023-06-01T05:47:44;8.27;;;3.80;;
52126;SDS011;38120;53.176;6.614;2023-06-01T05:50:10;7.30;;;3.80;;
52126;SDS011;38120;53.176;6.614;2023-06-01T05:52:35;11.95;;;4.25;;
52126;SDS011;38120;53.176;6.614;2023-06-01T05:55:01;8.68;;;3.63;;
52126;SDS011;38120;53.176;6.614;2023-06-01T05:57:28;7.93;;;3.50;;
52126;SDS011;38120;53.176;6.614;2023-06-01T05:59:53;11.27;;;3.30;;
52126;SDS011;38120;53.176;6.614;2023-06-01T06:02:19;7.50;;;3.30;;
52126;SDS011;38120;53.176;6.614;2023-06-01T06:04:45;6.43;;;2.88;;
52126;SDS011;38120;53.176;6.614;2023-06-01T06:07:11;6.10;;;3.05;;
52126;SDS011;38120;53.176;6.614;2023-06-01T06:09:37;6.23;;;2.17;;
52126;SDS011;38120;53.176;6.614;2023-06-01T06:12:02;6.32;;;2.80;;
52126;SDS011;38120;53.176;6.614;2023-06-01T06:14:29;6.07;;;2.33;;
52126;SDS011;38120;53.176;6.614;2023-06-01T06:16:55;8.98;;;2.55;;
52126;SDS011;38120;53.176;6.614;2023-06-01T06:19:22;11.10;;;3.88;;
52126;SDS011;38120;53.176;6.614;2023-06-01T06:21:47;9.63;;;2.88;;
52126;SDS011;38120;53.176;6.614;2023-06-01T06:24:13;10.73;;;3.40;;
52126;SDS011;38120;53.176;6.614;2023-06-01T06:26:39;9.70;;;3.30;;
52126;SDS011;38120;53.176;6.614;2023-06-01T06:29:05;7.78;;;3.00;;
52126;SDS011;38120;53.176;6.614;2023-06-01T06:31:30;11.63;;;3.50;;
52126;SDS011;38120;53.176;6.614;2023-06-01T06:33:56;8.93;;;4.00;;
52126;SDS011;38120;53.176;6.614;2023-06-01T06:36:22;5.15;;;2.58;;
52126;SDS011;38120;53.176;6.614;2023-06-01T06:38:50;7.13;;;2.80;;
52126;SDS011;38120;53.176;6.614;2023-06-01T06:41:16;5.63;;;2.23;;
52126;SDS011;38120;53.176;6.614;2023-06-01T06:43:42;9.18;;;2.65;;
52126;SDS011;38120;53.176;6.614;2023-06-01T06:46:07;7.40;;;2.63;;
52126;SDS011;38120;53.176;6.614;2023-06-01T06:48:33;8.75;;;2.55;;
52126;SDS011;38120;53.176;6.614;2023-06-01T06:50:59;4.70;;;1.40;;
52126;SDS011;38120;53.176;6.614;2023-06-01T06:53:25;5.65;;;1.75;;
52126;SDS011;38120;53.176;6.614;2023-06-01T06:55:51;4.87;;;1.83;;
52126;SDS011;38120;53.176;6.614;2023-06-01T06:58:17;4.57;;;1.87;;
52126;SDS011;38120;53.176;6.614;2023-06-01T07:00:42;5.03;;;2.50;;
52126;SDS011;38120;53.176;6.614;2023-06-01T07:03:09;6.80;;;2.80;;
52126;SDS011;38120;53.176;6.614;2023-06-01T07:05:35;6.35;;;2.00;;
52126;SDS011;38120;53.176;6.614;2023-06-01T07:08:00;6.10;;;2.22;;
52126;SDS011;38120;53.176;6.614;2023-06-01T07:10:26;6.47;;;2.37;;
52126;SDS011;38120;53.176;6.614;2023-06-01T07:12:52;5.13;;;2.17;;
52126;SDS011;38120;53.176;6.614;2023-06-01T07:15:17;4.72;;;2.20;;
52126;SDS011;38120;53.176;6.614;2023-06-01T07:17:43;6.43;;;1.80;;
52126;SDS011;38120;53.176;6.614;2023-06-01T07:20:09;5.47;;;2.27;;
52126;SDS011;38120;53.176;6.614;2023-06-01T07:22:38;4.97;;;2.20;;
52126;SDS011;38120;53.176;6.614;2023-06-01T07:27:31;10.25;;;2.65;;
52126;SDS011;38120;53.176;6.614;2023-06-01T07:30:00;6.85;;;2.55;;
52126;SDS011;38120;53.176;6.614;2023-06-01T07:32:28;7.28;;;3.08;;
52126;SDS011;38120;53.176;6.614;2023-06-01T07:34:54;3.80;;;1.63;;
52126;SDS011;38120;53.176;6.614;2023-06-01T07:37:23;8.20;;;2.67;;
52126;SDS011;38120;53.176;6.614;2023-06-01T07:39:51;5.25;;;2.28;;
52126;SDS011;38120;53.176;6.614;2023-06-01T07:42:17;6.35;;;2.10;;
52126;SDS011;38120;53.176;6.614;2023-06-01T07:44:43;4.57;;;2.30;;
52126;SDS011;38120;53.176;6.614;2023-06-01T07:47:10;5.80;;;2.20;;
52126;SDS011;38120;53.176;6.614;2023-06-01T07:49:36;3.55;;;1.98;;
52126;SDS011;38120;53.176;6.614;2023-06-01T07:52:02;9.02;;;2.47;;
52126;SDS011;38120;53.176;6.614;2023-06-01T07:54:28;5.10;;;2.53;;
52126;SDS011;38120;53.176;6.614;2023-06-01T07:56:55;9.52;;;2.67;;
52126;SDS011;38120;53.176;6.614;2023-06-01T07:59:22;5.10;;;2.28;;
52126;SDS011;38120;53.176;6.614;2023-06-01T08:01:49;4.55;;;1.95;;
52126;SDS011;38120;53.176;6.614;2023-06-01T08:04:17;5.18;;;1.98;;
52126;SDS011;38120;53.176;6.614;2023-06-01T08:06:46;9.20;;;2.35;;
52126;SDS011;38120;53.176;6.614;2023-06-01T08:09:12;7.40;;;2.03;;
52126;SDS011;38120;53.176;6.614;2023-06-01T08:11:38;8.65;;;2.08;;
52126;SDS011;38120;53.176;6.614;2023-06-01T08:14:03;4.95;;;2.15;;
52126;SDS011;38120;53.176;6.614;2023-06-01T08:16:32;5.20;;;2.08;;
52126;SDS011;38120;53.176;6.614;2023-06-01T08:18:58;3.50;;;1.13;;
52126;SDS011;38120;53.176;6.614;2023-06-01T08:21:24;5.97;;;2.10;;
52126;SDS011;38120;53.176;6.614;2023-06-01T08:23:51;5.32;;;1.98;;
52126;SDS011;38120;53.176;6.614;2023-06-01T08:26:20;6.88;;;1.60;;
52126;SDS011;38120;53.176;6.614;2023-06-01T08:28:49;6.00;;;1.77;;
52126;SDS011;38120;53.176;6.614;2023-06-01T08:31:21;4.75;;;1.70;;
52126;SDS011;38120;53.176;6.614;2023-06-01T08:33:48;6.63;;;1.83;;
52126;SDS011;38120;53.176;6.614;2023-06-01T08:36:16;8.35;;;1.98;;
52126;SDS011;38120;53.176;6.614;2023-06-01T08:41:24;6.20;;;2.38;;
52126;SDS011;38120;53.176;6.614;2023-06-01T08:44:05;11.68;;;2.83;;
52126;SDS011;38120;53.176;6.614;2023-06-01T08:46:33;5.90;;;2.60;;
52126;SDS011;38120;53.176;6.614;2023-06-01T08:49:01;8.63;;;2.75;;
52126;SDS011;38120;53.176;6.614;2023-06-01T08:51:29;6.35;;;3.38;;
52126;SDS011;38120;53.176;6.614;2023-06-01T08:53:58;8.38;;;3.30;;
52126;SDS011;38120;53.176;6.614;2023-06-01T08:56:27;5.90;;;2.55;;
52126;SDS011;38120;53.176;6.614;2023-06-01T08:58:53;9.90;;;3.75;;
52126;SDS011;38120;53.176;6.614;2023-06-01T09:01:20;9.82;;;3.65;;
52126;SDS011;38120;53.176;6.614;2023-06-01T09:03:48;7.75;;;4.18;;
52126;SDS011;38120;53.176;6.614;2023-06-01T09:06:15;14.25;;;4.43;;
52126;SDS011;38120;53.176;6.614;2023-06-01T09:08:41;10.55;;;4.00;;
52126;SDS011;38120;53.176;6.614;2023-06-01T09:11:07;15.57;;;3.65;;
52126;SDS011;38120;53.176;6.614;2023-06-01T09:13:34;11.45;;;4.35;;
52126;SDS011;38120;53.176;6.614;2023-06-01T09:16:01;11.00;;;3.83;;
52126;SDS011;38120;53.176;6.614;2023-06-01T09:18:27;8.98;;;2.80;;
52126;SDS011;38120;53.176;6.614;2023-06-01T09:20:53;8.55;;;3.28;;
52126;SDS011;38120;53.176;6.614;2023-06-01T09:23:28;8.75;;;2.42;;
52126;SDS011;38120;53.176;6.614;2023-06-01T09:26:07;8.80;;;2.75;;
52126;SDS011;38120;53.176;6.614;2023-06-01T09:34:11;7.75;;;2.72;;
52126;SDS011;38120;53.176;6.614;2023-06-01T09:36:53;14.68;;;2.50;;
52126;SDS011;38120;53.176;6.614;2023-06-01T09:39:21;10.40;;;3.40;;
52126;SDS011;38120;53.176;6.614;2023-06-01T09:41:49;10.50;;;2.72;;
52126;SDS011;38120;53.176;6.614;2023-06-01T09:47:14;11.20;;;2.33;;
52126;SDS011;38120;53.176;6.614;2023-06-01T09:49:43;9.13;;;3.05;;
52126;SDS011;38120;53.176;6.614;2023-06-01T09:54:49;9.32;;;3.70;;
52126;SDS011;38120;53.176;6.614;2023-06-01T09:57:26;9.88;;;3.25;;
52126;SDS011;38120;53.176;6.614;2023-06-01T09:59:54;8.88;;;2.78;;
52126;SDS011;38120;53.176;6.614;2023-06-01T10:02:21;13.13;;;2.78;;
52126;SDS011;38120;53.176;6.614;2023-06-01T10:04:48;8.38;;;2.50;;
52126;SDS011;38120;53.176;6.614;2023-06-01T10:07:15;6.18;;;2.47;;
52126;SDS011;38120;53.176;6.614;2023-06-01T10:09:43;6.18;;;2.85;;
52126;SDS011;38120;53.176;6.614;2023-06-01T10:12:11;5.13;;;1.95;;
52126;SDS011;38120;53.176;6.614;2023-06-01T10:14:37;7.80;;;2.78;;
52126;SDS011;38120;53.176;6.614;2023-06-01T10:17:07;9.95;;;2.30;;
52126;SDS011;38120;53.176;6.614;2023-06-01T10:19:33;7.38;;;3.33;;
52126;SDS011;38120;53.176;6.614;2023-06-01T10:22:02;9.20;;;2.97;;
52126;SDS011;38120;53.176;6.614;2023-06-01T10:29:47;10.10;;;3.22;;
52126;SDS011;38120;53.176;6.614;2023-06-01T10:40:37;8.40;;;2.95;;
52126;SDS011;38120;53.176;6.614;2023-06-01T10:43:04;7.25;;;3.70;;
52126;SDS011;38120;53.176;6.614;2023-06-01T10:48:04;11.93;;;2.55;;
52126;SDS011;38120;53.176;6.614;2023-06-01T10:50:32;7.50;;;3.20;;
52126;SDS011;38120;53.176;6.614;2023-06-01T10:56:28;10.80;;;2.65;;
52126;SDS011;38120;53.176;6.614;2023-06-01T10:58:53;7.75;;;3.13;;
52126;SDS011;38120;53.176;6.614;2023-06-01T11:01:43;12.68;;;2.92;;
52126;SDS011;38120;53.176;6.614;2023-06-01T11:04:09;6.30;;;2.30;;
52126;SDS011;38120;53.176;6.614;2023-06-01T11:06:39;7.50;;;2.78;;
52126;SDS011;38120;53.176;6.614;2023-06-01T11:09:08;10.63;;;3.35;;
52126;SDS011;38120;53.176;6.614;2023-06-01T11:14:14;6.68;;;2.63;;
52126;SDS011;38120;53.176;6.614;2023-06-01T11:16:41;9.73;;;3.05;;
52126;SDS011;38120;53.176;6.614;2023-06-01T11:19:07;6.32;;;2.20;;
52126;SDS011;38120;53.176;6.614;2023-06-01T11:24:14;8.18;;;2.67;;
52126;SDS011;38120;53.176;6.614;2023-06-01T11:26:45;9.20;;;2.75;;
52126;SDS011;38120;53.176;6.614;2023-06-01T11:29:22;8.15;;;1.90;;
52126;SDS011;38120;53.176;6.614;2023-06-01T11:31:53;8.52;;;2.03;;
52126;SDS011;38120;53.176;6.614;2023-06-01T11:34:27;6.43;;;2.58;;
52126;SDS011;38120;53.176;6.614;2023-06-01T11:37:02;6.25;;;2.40;;
52126;SDS011;38120;53.176;6.614;2023-06-01T11:39:28;8.68;;;2.95;;
52126;SDS011;38120;53.176;6.614;2023-06-01T11:42:05;7.97;;;2.38;;
52126;SDS011;38120;53.176;6.614;2023-06-01T11:44:36;8.95;;;3.03;;
52126;SDS011;38120;53.176;6.614;2023-06-01T11:47:05;5.97;;;3.00;;
52126;SDS011;38120;53.176;6.614;2023-06-01T11:49:39;11.70;;;2.78;;
52126;SDS011;38120;53.176;6.614;2023-06-01T11:52:19;10.25;;;2.95;;
52126;SDS011;38120;53.176;6.614;2023-06-01T11:54:45;9.30;;;2.95;;
52126;SDS011;38120;53.176;6.614;2023-06-01T11:57:11;11.07;;;2.97;;
52126;SDS011;38120;53.176;6.614;2023-06-01T11:59:38;8.25;;;3.40;;
52126;SDS011;38120;53.176;6.614;2023-06-01T12:02:15;9.07;;;3.13;;
52126;SDS011;38120;53.176;6.614;2023-06-01T12:07:50;7.88;;;3.28;;
52126;SDS011;38120;53.176;6.614;2023-06-01T12:10:17;7.88;;;3.10;;
52126;SDS011;38120;53.176;6.614;2023-06-01T12:12:45;7.88;;;3.42;;
52126;SDS011;38120;53.176;6.614;2023-06-01T12:15:12;9.50;;;3.53;;
52126;SDS011;38120;53.176;6.614;2023-06-01T12:20:31;8.60;;;2.78;;
52126;SDS011;38120;53.176;6.614;2023-06-01T12:28:18;7.03;;;3.55;;
52126;SDS011;38120;53.176;6.614;2023-06-01T12:30:45;9.05;;;3.78;;
52126;SDS011;38120;53.176;6.614;2023-06-01T12:36:03;7.30;;;3.15;;
52126;SDS011;38120;53.176;6.614;2023-06-01T12:38:49;12.57;;;3.90;;
52126;SDS011;38120;53.176;6.614;2023-06-01T12:41:16;8.80;;;3.55;;
52126;SDS011;38120;53.176;6.614;2023-06-01T12:43:46;10.95;;;3.40;;
52126;SDS011;38120;53.176;6.614;2023-06-01T12:46:26;8.82;;;3.72;;
52126;SDS011;38120;53.176;6.614;2023-06-01T12:48:54;10.93;;;3.88;;
52126;SDS011;38120;53.176;6.614;2023-06-01T12:51:45;11.88;;;4.07;;
52126;SDS011;38120;53.176;6.614;2023-06-01T12:54:11;7.22;;;3.60;;
52126;SDS011;38120;53.176;6.614;2023-06-01T12:56:37;12.00;;;3.28;;
52126;SDS011;38120;53.176;6.614;2023-06-01T12:59:03;7.78;;;2.78;;
52126;SDS011;38120;53.176;6.614;2023-06-01T13:01:29;10.55;;;3.78;;
52126;SDS011;38120;53.176;6.614;2023-06-01T13:03:55;8.90;;;3.22;;
52126;SDS011;38120;53.176;6.614;2023-06-01T13:08:47;8.63;;;4.55;;
52126;SDS011;38120;53.176;6.614;2023-06-01T13:11:13;13.07;;;4.22;;
52126;SDS011;38120;53.176;6.614;2023-06-01T13:13:39;13.80;;;4.40;;
52126;SDS011;38120;53.176;6.614;2023-06-01T13:16:06;9.73;;;4.25;;
52126;SDS011;38120;53.176;6.614;2023-06-01T13:20:58;13.15;;;4.28;;
52126;SDS011;38120;53.176;6.614;2023-06-01T13:23:23;14.10;;;4.30;;
52126;SDS011;38120;53.176;6.614;2023-06-01T13:25:49;11.70;;;3.93;;
52126;SDS011;38120;53.176;6.614;2023-06-01T13:28:15;12.60;;;3.77;;
52126;SDS011;38120;53.176;6.614;2023-06-01T13:30:40;10.35;;;3.78;;
52126;SDS011;38120;53.176;6.614;2023-06-01T13:33:07;9.63;;;4.28;;
52126;SDS011;38120;53.176;6.614;2023-06-01T13:37:59;8.45;;;3.35;;
52126;SDS011;38120;53.176;6.614;2023-06-01T13:40:25;10.25;;;3.55;;
52126;SDS011;38120;53.176;6.614;2023-06-01T13:42:52;9.95;;;3.53;;
52126;SDS011;38120;53.176;6.614;2023-06-01T13:47:47;6.78;;;2.50;;
52126;SDS011;38120;53.176;6.614;2023-06-01T13:50:14;4.97;;;2.50;;
52126;SDS011;38120;53.176;6.614;2023-06-01T13:52:40;6.03;;;2.53;;
52126;SDS011;38120;53.176;6.614;2023-06-01T13:55:06;7.05;;;2.78;;
52126;SDS011;38120;53.176;6.614;2023-06-01T13:57:33;12.80;;;3.53;;
52126;SDS011;38120;53.176;6.614;2023-06-01T14:02:25;14.55;;;3.28;;
52126;SDS011;38120;53.176;6.614;2023-06-01T14:04:50;12.55;;;3.08;;
52126;SDS011;38120;53.176;6.614;2023-06-01T14:07:17;13.23;;;3.65;;
52126;SDS011;38120;53.176;6.614;2023-06-01T14:09:43;6.85;;;2.35;;
52126;SDS011;38120;53.176;6.614;2023-06-01T14:12:09;8.25;;;2.42;;
52126;SDS011;38120;53.176;6.614;2023-06-01T14:14:36;6.45;;;2.53;;
52126;SDS011;38120;53.176;6.614;2023-06-01T14:17:02;5.82;;;2.65;;
52126;SDS011;38120;53.176;6.614;2023-06-01T14:19:28;7.72;;;2.17;;
52126;SDS011;38120;53.176;6.614;2023-06-01T14:21:54;4.32;;;2.03;;
52126;SDS011;38120;53.176;6.614;2023-06-01T14:24:19;6.30;;;2.07;;
52126;SDS011;38120;53.176;6.614;2023-06-01T14:26:46;5.70;;;1.80;;
52126;SDS011;38120;53.176;6.614;2023-06-01T14:29:11;6.00;;;1.83;;
52126;SDS011;38120;53.176;6.614;2023-06-01T14:31:37;8.98;;;2.58;;
52126;SDS011;38120;53.176;6.614;2023-06-01T14:34:03;6.78;;;2.42;;
52126;SDS011;38120;53.176;6.614;2023-06-01T14:36:29;5.03;;;1.50;;
52126;SDS011;38120;53.176;6.614;2023-06-01T14:38:55;4.10;;;1.95;;
52126;SDS011;38120;53.176;6.614;2023-06-01T14:41:21;4.70;;;1.88;;
52126;SDS011;38120;53.176;6.614;2023-06-01T14:43:46;9.47;;;2.40;;
52126;SDS011;38120;53.176;6.614;2023-06-01T14:46:12;7.23;;;2.10;;
52126;SDS011;38120;53.176;6.614;2023-06-01T14:48:38;5.83;;;2.23;;
52126;SDS011;38120;53.176;6.614;2023-06-01T14:51:03;3.67;;;1.90;;
52126;SDS011;38120;53.176;6.614;2023-06-01T14:53:29;7.30;;;2.03;;
52126;SDS011;38120;53.176;6.614;2023-06-01T14:55:55;6.03;;;2.08;;
52126;SDS011;38120;53.176;6.614;2023-06-01T14:58:22;6.45;;;2.00;;
52126;SDS011;38120;53.176;6.614;2023-06-01T15:00:47;6.22;;;2.20;;
52126;SDS011;38120;53.176;6.614;2023-06-01T15:03:20;6.30;;;2.13;;
52126;SDS011;38120;53.176;6.614;2023-06-01T15:05:45;6.40;;;1.90;;
52126;SDS011;38120;53.176;6.614;2023-06-01T15:08:11;6.87;;;2.00;;
52126;SDS011;38120;53.176;6.614;2023-06-01T15:10:38;7.40;;;2.28;;
52126;SDS011;38120;53.176;6.614;2023-06-01T15:13:03;6.93;;;2.37;;
52126;SDS011;38120;53.176;6.614;2023-06-01T15:15:29;5.20;;;2.30;;
52126;SDS011;38120;53.176;6.614;2023-06-01T15:17:56;6.35;;;2.25;;
52126;SDS011;38120;53.176;6.614;2023-06-01T15:20:22;6.55;;;1.90;;
52126;SDS011;38120;53.176;6.614;2023-06-01T15:22:47;3.70;;;1.88;;
52126;SDS011;38120;53.176;6.614;2023-06-01T15:25:13;6.90;;;2.57;;
52126;SDS011;38120;53.176;6.614;2023-06-01T15:27:39;4.30;;;1.55;;
52126;SDS011;38120;53.176;6.614;2023-06-01T15:30:05;8.30;;;1.75;;
52126;SDS011;38120;53.176;6.614;2023-06-01T15:34:57;5.53;;;1.52;;
52126;SDS011;38120;53.176;6.614;2023-06-01T15:37:22;10.47;;;1.87;;
52126;SDS011;38120;53.176;6.614;2023-06-01T15:39:48;4.70;;;2.03;;
52126;SDS011;38120;53.176;6.614;2023-06-01T15:42:14;3.60;;;1.45;;
52126;SDS011;38120;53.176;6.614;2023-06-01T15:44:40;3.65;;;1.60;;
52126;SDS011;38120;53.176;6.614;2023-06-01T15:47:08;9.73;;;1.80;;
52126;SDS011;38120;53.176;6.614;2023-06-01T15:49:34;9.38;;;2.20;;
52126;SDS011;38120;53.176;6.614;2023-06-01T15:52:00;6.75;;;1.92;;
52126;SDS011;38120;53.176;6.614;2023-06-01T15:54:30;5.95;;;1.65;;
52126;SDS011;38120;53.176;6.614;2023-06-01T15:56:57;4.38;;;1.67;;
52126;SDS011;38120;53.176;6.614;2023-06-01T15:59:23;5.95;;;1.80;;
52126;SDS011;38120;53.176;6.614;2023-06-01T16:01:49;4.97;;;1.80;;
52126;SDS011;38120;53.176;6.614;2023-06-01T16:04:15;8.40;;;2.10;;
52126;SDS011;38120;53.176;6.614;2023-06-01T16:06:41;4.95;;;1.80;;
52126;SDS011;38120;53.176;6.614;2023-06-01T16:09:07;6.90;;;2.90;;
52126;SDS011;38120;53.176;6.614;2023-06-01T16:11:33;13.05;;;2.53;;
52126;SDS011;38120;53.176;6.614;2023-06-01T16:13:59;5.88;;;1.90;;
52126;SDS011;38120;53.176;6.614;2023-06-01T16:16:25;7.00;;;2.33;;
52126;SDS011;38120;53.176;6.614;2023-06-01T16:21:17;5.05;;;1.98;;
52126;SDS011;38120;53.176;6.614;2023-06-01T16:23:43;4.07;;;1.53;;
52126;SDS011;38120;53.176;6.614;2023-06-01T16:26:09;6.70;;;2.15;;